sensor_id;sensor_type;location;lat;lon;timestamp;temperature;humidity
20496;DHT22;10406;54.132;17.968;2022-08-23T00:03:46;17.40;99.90
20496;DHT22;10406;54.132;17.968;2022-08-23T00:09:08;17.50;99.90
20496;DHT22;10406;54.132;17.968;2022-08-23T00:14:32;17.70;99.90
20496;DHT22;10406;54.132;17.968;2022-08-23T00:19:57;17.80;99.90
20496;DHT22;10406;54.132;17.968;2022-08-23T00:25:21;17.80;99.90
20496;DHT22;10406;54.132;17.968;2022-08-23T00:30:41;17.80;99.90
20496;DHT22;10406;54.132;17.968;2022-08-23T00:36:04;17.90;99.90
20496;DHT22;10406;54.132;17.968;2022-08-23T00:41:32;18.10;99.90
20496;DHT22;10406;54.132;17.968;2022-08-23T00:46:55;18.10;99.90
20496;DHT22;10406;54.132;17.968;2022-08-23T00:52:40;18.10;99.90
20496;DHT22;10406;54.132;17.968;2022-08-23T00:58:02;18.20;99.90
20496;DHT22;10406;54.132;17.968;2022-08-23T01:03:25;18.30;99.90
20496;DHT22;10406;54.132;17.968;2022-08-23T01:08:51;18.30;99.90
20496;DHT22;10406;54.132;17.968;2022-08-23T01:14:15;18.30;99.90
20496;DHT22;10406;54.132;17.968;2022-08-23T01:19:39;18.30;99.90
20496;DHT22;10406;54.132;17.968;2022-08-23T01:25:05;18.20;99.90
20496;DHT22;10406;54.132;17.968;2022-08-23T01:30:30;18.20;99.90
20496;DHT22;10406;54.132;17.968;2022-08-23T01:35:54;18.30;99.90
20496;DHT22;10406;54.132;17.968;2022-08-23T01:41:17;18.30;99.90
20496;DHT22;10406;54.132;17.968;2022-08-23T01:46:38;18.30;99.90
20496;DHT22;10406;54.132;17.968;2022-08-23T01:52:02;18.40;99.90
20496;DHT22;10406;54.132;17.968;2022-08-23T01:57:25;18.50;99.90
20496;DHT22;10406;54.132;17.968;2022-08-23T02:02:49;18.40;99.90
20496;DHT22;10406;54.132;17.968;2022-08-23T02:08:11;18.40;99.90
20496;DHT22;10406;54.132;17.968;2022-08-23T02:13:52;18.50;99.90
20496;DHT22;10406;54.132;17.968;2022-08-23T02:19:14;18.40;99.90
20496;DHT22;10406;54.132;17.968;2022-08-23T02:24:39;18.50;99.90
20496;DHT22;10406;54.132;17.968;2022-08-23T02:30:03;18.50;99.90
20496;DHT22;10406;54.132;17.968;2022-08-23T02:35:24;18.50;99.90
20496;DHT22;10406;54.132;17.968;2022-08-23T02:40:45;18.50;99.90
20496;DHT22;10406;54.132;17.968;2022-08-23T02:46:11;18.50;99.90
20496;DHT22;10406;54.132;17.968;2022-08-23T02:51:32;18.50;99.90
20496;DHT22;10406;54.132;17.968;2022-08-23T02:56:56;18.50;99.90
20496;DHT22;10406;54.132;17.968;2022-08-23T03:02:18;18.50;99.90
20496;DHT22;10406;54.132;17.968;2022-08-23T03:07:40;18.50;99.90
20496;DHT22;10406;54.132;17.968;2022-08-23T03:13:01;18.60;99.90
20496;DHT22;10406;54.132;17.968;2022-08-23T03:18:23;18.50;99.90
20496;DHT22;10406;54.132;17.968;2022-08-23T03:23:44;18.70;99.90
20496;DHT22;10406;54.132;17.968;2022-08-23T03:29:05;18.70;99.90
20496;DHT22;10406;54.132;17.968;2022-08-23T03:34:28;18.70;99.90
20496;DHT22;10406;54.132;17.968;2022-08-23T03:39:49;18.60;99.90
20496;DHT22;10406;54.132;17.968;2022-08-23T03:45:11;18.60;99.90
20496;DHT22;10406;54.132;17.968;2022-08-23T03:50:33;18.40;99.90
20496;DHT22;10406;54.132;17.968;2022-08-23T03:55:55;18.20;99.90
20496;DHT22;10406;54.132;17.968;2022-08-23T04:01:18;18.20;99.90
20496;DHT22;10406;54.132;17.968;2022-08-23T04:06:40;18.20;99.90
20496;DHT22;10406;54.132;17.968;2022-08-23T04:12:03;18.20;99.90
20496;DHT22;10406;54.132;17.968;2022-08-23T04:17:27;18.10;99.90
20496;DHT22;10406;54.132;17.968;2022-08-23T04:22:52;18.20;99.90
20496;DHT22;10406;54.132;17.968;2022-08-23T04:28:13;18.20;99.90
20496;DHT22;10406;54.132;17.968;2022-08-23T04:33:34;18.40;99.90
20496;DHT22;10406;54.132;17.968;2022-08-23T04:38:59;18.50;99.90
20496;DHT22;10406;54.132;17.968;2022-08-23T04:44:22;18.60;99.90
20496;DHT22;10406;54.132;17.968;2022-08-23T04:49:44;18.60;99.90
20496;DHT22;10406;54.132;17.968;2022-08-23T04:55:10;18.70;99.90
20496;DHT22;10406;54.132;17.968;2022-08-23T05:00:36;18.80;99.90
20496;DHT22;10406;54.132;17.968;2022-08-23T05:06:02;18.80;99.90
20496;DHT22;10406;54.132;17.968;2022-08-23T05:11:28;18.80;99.90
20496;DHT22;10406;54.132;17.968;2022-08-23T05:16:51;18.90;99.90
20496;DHT22;10406;54.132;17.968;2022-08-23T05:28:17;19.20;99.90
20496;DHT22;10406;54.132;17.968;2022-08-23T05:33:48;19.30;99.90
20496;DHT22;10406;54.132;17.968;2022-08-23T05:39:10;19.30;99.90
20496;DHT22;10406;54.132;17.968;2022-08-23T05:44:32;19.40;99.90
20496;DHT22;10406;54.132;17.968;2022-08-23T05:49:54;19.60;99.90
20496;DHT22;10406;54.132;17.968;2022-08-23T05:55:22;19.80;99.90
20496;DHT22;10406;54.132;17.968;2022-08-23T06:00:45;19.90;99.90
20496;DHT22;10406;54.132;17.968;2022-08-23T06:06:39;20.10;99.90
20496;DHT22;10406;54.132;17.968;2022-08-23T06:12:00;20.20;99.90
20496;DHT22;10406;54.132;17.968;2022-08-23T06:17:24;20.30;99.90
20496;DHT22;10406;54.132;17.968;2022-08-23T06:22:45;20.30;99.90
20496;DHT22;10406;54.132;17.968;2022-08-23T06:28:06;20.30;99.90
20496;DHT22;10406;54.132;17.968;2022-08-23T06:33:29;20.40;99.90
20496;DHT22;10406;54.132;17.968;2022-08-23T06:38:50;20.70;99.90
20496;DHT22;10406;54.132;17.968;2022-08-23T06:44:11;21.00;99.90
20496;DHT22;10406;54.132;17.968;2022-08-23T06:49:45;21.30;99.90
20496;DHT22;10406;54.132;17.968;2022-08-23T06:55:14;21.40;99.90
20496;DHT22;10406;54.132;17.968;2022-08-23T07:00:34;21.60;99.90
20496;DHT22;10406;54.132;17.968;2022-08-23T07:06:09;21.40;99.90
20496;DHT22;10406;54.132;17.968;2022-08-23T07:11:39;21.40;99.90
20496;DHT22;10406;54.132;17.968;2022-08-23T07:17:01;21.20;99.90
20496;DHT22;10406;54.132;17.968;2022-08-23T07:22:26;21.20;99.90
20496;DHT22;10406;54.132;17.968;2022-08-23T07:27:47;21.40;99.90
20496;DHT22;10406;54.132;17.968;2022-08-23T07:33:08;21.20;99.90
20496;DHT22;10406;54.132;17.968;2022-08-23T07:38:34;21.20;99.90
20496;DHT22;10406;54.132;17.968;2022-08-23T07:49:20;21.40;99.90
20496;DHT22;10406;54.132;17.968;2022-08-23T07:54:50;21.50;99.90
20496;DHT22;10406;54.132;17.968;2022-08-23T08:00:12;21.90;99.90
20496;DHT22;10406;54.132;17.968;2022-08-23T08:05:33;22.40;99.90
20496;DHT22;10406;54.132;17.968;2022-08-23T08:10:58;22.30;99.90
20496;DHT22;10406;54.132;17.968;2022-08-23T08:16:21;22.20;99.90
20496;DHT22;10406;54.132;17.968;2022-08-23T08:21:42;22.20;99.90
20496;DHT22;10406;54.132;17.968;2022-08-23T08:27:05;22.20;99.90
20496;DHT22;10406;54.132;17.968;2022-08-23T08:32:27;22.20;99.90
20496;DHT22;10406;54.132;17.968;2022-08-23T08:43:25;22.40;99.90
20496;DHT22;10406;54.132;17.968;2022-08-23T08:48:54;22.50;99.90
20496;DHT22;10406;54.132;17.968;2022-08-23T08:54:23;22.40;99.90
20496;DHT22;10406;54.132;17.968;2022-08-23T08:59:51;22.50;99.90
20496;DHT22;10406;54.132;17.968;2022-08-23T09:05:16;22.40;99.90
20496;DHT22;10406;54.132;17.968;2022-08-23T09:10:48;22.20;99.90
20496;DHT22;10406;54.132;17.968;2022-08-23T09:16:36;22.10;99.90
20496;DHT22;10406;54.132;17.968;2022-08-23T09:22:29;22.20;99.90
20496;DHT22;10406;54.132;17.968;2022-08-23T09:27:53;22.10;99.90
20496;DHT22;10406;54.132;17.968;2022-08-23T09:33:17;22.20;99.90
20496;DHT22;10406;54.132;17.968;2022-08-23T09:38:50;22.30;99.90
20496;DHT22;10406;54.132;17.968;2022-08-23T09:44:30;22.30;99.90
20496;DHT22;10406;54.132;17.968;2022-08-23T09:49:53;22.30;99.90
20496;DHT22;10406;54.132;17.968;2022-08-23T09:55:26;22.30;99.90
20496;DHT22;10406;54.132;17.968;2022-08-23T10:01:05;22.50;99.90
20496;DHT22;10406;54.132;17.968;2022-08-23T10:06:30;22.70;99.90
20496;DHT22;10406;54.132;17.968;2022-08-23T10:11:53;22.70;99.90
20496;DHT22;10406;54.132;17.968;2022-08-23T10:22:51;22.90;99.90
20496;DHT22;10406;54.132;17.968;2022-08-23T10:28:28;23.40;99.90
20496;DHT22;10406;54.132;17.968;2022-08-23T10:34:23;23.80;99.90
20496;DHT22;10406;54.132;17.968;2022-08-23T10:39:57;23.60;99.90
20496;DHT22;10406;54.132;17.968;2022-08-23T10:45:29;23.60;99.90
20496;DHT22;10406;54.132;17.968;2022-08-23T10:50:57;24.00;99.90
20496;DHT22;10406;54.132;17.968;2022-08-23T10:56:33;24.10;99.90
20496;DHT22;10406;54.132;17.968;2022-08-23T11:02:00;24.10;99.90
20496;DHT22;10406;54.132;17.968;2022-08-23T11:07:27;24.40;99.90
20496;DHT22;10406;54.132;17.968;2022-08-23T11:18:47;24.80;99.90
20496;DHT22;10406;54.132;17.968;2022-08-23T11:24:52;24.60;99.90
20496;DHT22;10406;54.132;17.968;2022-08-23T11:30:44;24.50;99.90
20496;DHT22;10406;54.132;17.968;2022-08-23T11:36:17;24.50;99.90
20496;DHT22;10406;54.132;17.968;2022-08-23T11:42:10;24.50;99.90
20496;DHT22;10406;54.132;17.968;2022-08-23T11:47:51;24.60;99.90
20496;DHT22;10406;54.132;17.968;2022-08-23T12:00:15;25.00;99.90
20496;DHT22;10406;54.132;17.968;2022-08-23T12:06:13;25.00;99.90
20496;DHT22;10406;54.132;17.968;2022-08-23T12:18:12;25.30;99.90
20496;DHT22;10406;54.132;17.968;2022-08-23T12:23:45;25.40;99.90
20496;DHT22;10406;54.132;17.968;2022-08-23T12:29:22;25.30;99.90
20496;DHT22;10406;54.132;17.968;2022-08-23T12:34:56;25.00;99.90
20496;DHT22;10406;54.132;17.968;2022-08-23T12:40:30;24.80;99.90
20496;DHT22;10406;54.132;17.968;2022-08-23T12:45:54;24.90;99.90
20496;DHT22;10406;54.132;17.968;2022-08-23T12:51:15;25.00;99.90
20496;DHT22;10406;54.132;17.968;2022-08-23T12:56:49;25.00;99.90
20496;DHT22;10406;54.132;17.968;2022-08-23T13:02:19;24.90;99.90
20496;DHT22;10406;54.132;17.968;2022-08-23T13:07:44;25.00;99.90
20496;DHT22;10406;54.132;17.968;2022-08-23T13:18:42;25.50;99.90
20496;DHT22;10406;54.132;17.968;2022-08-23T13:24:32;25.60;99.90
20496;DHT22;10406;54.132;17.968;2022-08-23T13:30:20;25.50;99.90
20496;DHT22;10406;54.132;17.968;2022-08-23T13:35:43;25.60;99.90
20496;DHT22;10406;54.132;17.968;2022-08-23T13:41:31;25.70;99.90
20496;DHT22;10406;54.132;17.968;2022-08-23T13:46:53;25.80;99.90
20496;DHT22;10406;54.132;17.968;2022-08-23T13:52:15;25.90;99.90
20496;DHT22;10406;54.132;17.968;2022-08-23T13:57:51;25.60;99.90
20496;DHT22;10406;54.132;17.968;2022-08-23T14:03:16;25.60;99.90
20496;DHT22;10406;54.132;17.968;2022-08-23T14:08:45;26.20;99.90
20496;DHT22;10406;54.132;17.968;2022-08-23T14:14:07;26.30;99.90
20496;DHT22;10406;54.132;17.968;2022-08-23T14:20:04;25.80;99.90
20496;DHT22;10406;54.132;17.968;2022-08-23T14:25:26;25.50;99.90
20496;DHT22;10406;54.132;17.968;2022-08-23T14:30:47;25.40;99.90
20496;DHT22;10406;54.132;17.968;2022-08-23T14:36:10;25.20;99.90
20496;DHT22;10406;54.132;17.968;2022-08-23T14:41:41;24.90;99.90
20496;DHT22;10406;54.132;17.968;2022-08-23T14:47:04;24.80;99.90
20496;DHT22;10406;54.132;17.968;2022-08-23T14:52:41;24.90;99.90
20496;DHT22;10406;54.132;17.968;2022-08-23T14:58:02;25.10;99.90
20496;DHT22;10406;54.132;17.968;2022-08-23T15:03:25;25.10;99.90
20496;DHT22;10406;54.132;17.968;2022-08-23T15:08:48;25.20;99.90
20496;DHT22;10406;54.132;17.968;2022-08-23T15:14:09;25.30;99.90
20496;DHT22;10406;54.132;17.968;2022-08-23T15:19:30;25.20;99.90
20496;DHT22;10406;54.132;17.968;2022-08-23T15:24:53;24.90;99.90
20496;DHT22;10406;54.132;17.968;2022-08-23T15:30:15;24.90;99.90
20496;DHT22;10406;54.132;17.968;2022-08-23T15:35:39;25.20;99.90
20496;DHT22;10406;54.132;17.968;2022-08-23T15:41:02;25.70;99.90
20496;DHT22;10406;54.132;17.968;2022-08-23T15:46:25;26.00;99.90
20496;DHT22;10406;54.132;17.968;2022-08-23T15:51:47;25.60;99.90
20496;DHT22;10406;54.132;17.968;2022-08-23T15:57:16;25.00;99.90
20496;DHT22;10406;54.132;17.968;2022-08-23T16:02:37;24.70;99.90
20496;DHT22;10406;54.132;17.968;2022-08-23T16:07:59;24.30;99.90
20496;DHT22;10406;54.132;17.968;2022-08-23T16:13:23;24.10;99.90
20496;DHT22;10406;54.132;17.968;2022-08-23T16:18:45;23.80;99.90
20496;DHT22;10406;54.132;17.968;2022-08-23T16:24:07;23.00;99.90
20496;DHT22;10406;54.132;17.968;2022-08-23T16:29:29;23.20;99.90
20496;DHT22;10406;54.132;17.968;2022-08-23T16:34:53;23.00;99.90
20496;DHT22;10406;54.132;17.968;2022-08-23T16:40:15;22.90;99.90
20496;DHT22;10406;54.132;17.968;2022-08-23T16:45:38;22.90;99.90
20496;DHT22;10406;54.132;17.968;2022-08-23T16:50:59;22.70;99.90
20496;DHT22;10406;54.132;17.968;2022-08-23T16:56:20;22.50;99.90
20496;DHT22;10406;54.132;17.968;2022-08-23T17:01:48;22.30;99.90
20496;DHT22;10406;54.132;17.968;2022-08-23T17:07:12;22.30;99.90
20496;DHT22;10406;54.132;17.968;2022-08-23T17:12:40;22.20;99.90
20496;DHT22;10406;54.132;17.968;2022-08-23T17:18:04;22.10;99.90
20496;DHT22;10406;54.132;17.968;2022-08-23T17:23:25;22.00;99.90
20496;DHT22;10406;54.132;17.968;2022-08-23T17:28:47;22.00;99.90
20496;DHT22;10406;54.132;17.968;2022-08-23T17:34:09;21.90;99.90
20496;DHT22;10406;54.132;17.968;2022-08-23T17:39:31;21.80;99.90
20496;DHT22;10406;54.132;17.968;2022-08-23T17:44:52;21.80;99.90
20496;DHT22;10406;54.132;17.968;2022-08-23T17:50:23;21.80;99.90
20496;DHT22;10406;54.132;17.968;2022-08-23T17:55:47;22.00;99.90
20496;DHT22;10406;54.132;17.968;2022-08-23T18:01:08;21.90;99.90
20496;DHT22;10406;54.132;17.968;2022-08-23T18:06:44;22.00;99.90
20496;DHT22;10406;54.132;17.968;2022-08-23T18:12:07;21.70;99.90
20496;DHT22;10406;54.132;17.968;2022-08-23T18:17:29;21.80;99.90
20496;DHT22;10406;54.132;17.968;2022-08-23T18:23:04;21.70;99.90
20496;DHT22;10406;54.132;17.968;2022-08-23T18:28:33;21.60;99.90
20496;DHT22;10406;54.132;17.968;2022-08-23T18:33:55;21.50;99.90
20496;DHT22;10406;54.132;17.968;2022-08-23T18:39:17;21.40;99.90
20496;DHT22;10406;54.132;17.968;2022-08-23T18:44:38;21.40;99.90
20496;DHT22;10406;54.132;17.968;2022-08-23T18:49:59;21.50;99.90
20496;DHT22;10406;54.132;17.968;2022-08-23T18:55:22;21.40;99.90
20496;DHT22;10406;54.132;17.968;2022-08-23T19:00:43;21.30;99.90
20496;DHT22;10406;54.132;17.968;2022-08-23T19:06:04;21.20;99.90
20496;DHT22;10406;54.132;17.968;2022-08-23T19:11:29;21.10;99.90
20496;DHT22;10406;54.132;17.968;2022-08-23T19:16:50;20.90;99.90
20496;DHT22;10406;54.132;17.968;2022-08-23T19:22:27;20.90;99.90
20496;DHT22;10406;54.132;17.968;2022-08-23T19:28:18;20.80;99.90
20496;DHT22;10406;54.132;17.968;2022-08-23T19:33:41;20.70;99.90
20496;DHT22;10406;54.132;17.968;2022-08-23T19:39:05;20.50;99.90
20496;DHT22;10406;54.132;17.968;2022-08-23T19:44:30;20.60;99.90
20496;DHT22;10406;54.132;17.968;2022-08-23T19:49:53;20.60;99.90
20496;DHT22;10406;54.132;17.968;2022-08-23T19:55:15;20.70;99.90
20496;DHT22;10406;54.132;17.968;2022-08-23T20:00:37;20.60;99.90
20496;DHT22;10406;54.132;17.968;2022-08-23T20:05:58;20.60;99.90
20496;DHT22;10406;54.132;17.968;2022-08-23T20:11:18;20.60;99.90
20496;DHT22;10406;54.132;17.968;2022-08-23T20:16:52;20.80;99.90
20496;DHT22;10406;54.132;17.968;2022-08-23T20:22:13;20.50;99.90
20496;DHT22;10406;54.132;17.968;2022-08-23T20:27:52;20.50;99.90
20496;DHT22;10406;54.132;17.968;2022-08-23T20:33:15;20.60;99.90
20496;DHT22;10406;54.132;17.968;2022-08-23T20:39:09;20.60;99.90
20496;DHT22;10406;54.132;17.968;2022-08-23T20:44:33;20.50;99.90
20496;DHT22;10406;54.132;17.968;2022-08-23T20:49:56;20.50;99.90
20496;DHT22;10406;54.132;17.968;2022-08-23T20:55:16;20.50;99.90
20496;DHT22;10406;54.132;17.968;2022-08-23T21:00:37;20.60;99.90
20496;DHT22;10406;54.132;17.968;2022-08-23T21:06:05;20.50;99.90
20496;DHT22;10406;54.132;17.968;2022-08-23T21:11:28;20.40;99.90
20496;DHT22;10406;54.132;17.968;2022-08-23T21:16:49;20.30;99.90
20496;DHT22;10406;54.132;17.968;2022-08-23T21:22:11;20.20;99.90
20496;DHT22;10406;54.132;17.968;2022-08-23T21:27:32;20.10;99.90
20496;DHT22;10406;54.132;17.968;2022-08-23T21:32:54;20.20;99.90
20496;DHT22;10406;54.132;17.968;2022-08-23T21:38:16;20.20;99.90
20496;DHT22;10406;54.132;17.968;2022-08-23T21:43:38;20.20;99.90
20496;DHT22;10406;54.132;17.968;2022-08-23T21:48:59;20.10;99.90
20496;DHT22;10406;54.132;17.968;2022-08-23T21:54:21;20.00;99.90
20496;DHT22;10406;54.132;17.968;2022-08-23T21:59:43;19.90;99.90
20496;DHT22;10406;54.132;17.968;2022-08-23T22:05:16;19.90;99.90
20496;DHT22;10406;54.132;17.968;2022-08-23T22:10:39;19.80;99.90
20496;DHT22;10406;54.132;17.968;2022-08-23T22:16:00;19.70;99.90
20496;DHT22;10406;54.132;17.968;2022-08-23T22:21:21;19.60;99.90
20496;DHT22;10406;54.132;17.968;2022-08-23T22:26:44;19.70;99.90
20496;DHT22;10406;54.132;17.968;2022-08-23T22:32:06;19.60;99.90
20496;DHT22;10406;54.132;17.968;2022-08-23T22:37:27;19.50;99.90
20496;DHT22;10406;54.132;17.968;2022-08-23T22:42:49;19.50;99.90
20496;DHT22;10406;54.132;17.968;2022-08-23T22:48:10;19.40;99.90
20496;DHT22;10406;54.132;17.968;2022-08-23T22:53:32;19.30;99.90
20496;DHT22;10406;54.132;17.968;2022-08-23T22:58:55;19.20;99.90
20496;DHT22;10406;54.132;17.968;2022-08-23T23:04:17;19.30;99.90
20496;DHT22;10406;54.132;17.968;2022-08-23T23:09:48;19.30;99.90
20496;DHT22;10406;54.132;17.968;2022-08-23T23:15:11;19.30;99.90
20496;DHT22;10406;54.132;17.968;2022-08-23T23:21:02;19.30;99.90
20496;DHT22;10406;54.132;17.968;2022-08-23T23:26:24;19.30;99.90
20496;DHT22;10406;54.132;17.968;2022-08-23T23:31:46;19.30;99.90
20496;DHT22;10406;54.132;17.968;2022-08-23T23:37:07;19.30;99.90
20496;DHT22;10406;54.132;17.968;2022-08-23T23:42:28;19.20;99.90
20496;DHT22;10406;54.132;17.968;2022-08-23T23:47:51;19.10;99.90
20496;DHT22;10406;54.132;17.968;2022-08-23T23:53:12;19.20;99.90
20496;DHT22;10406;54.132;17.968;2022-08-23T23:58:33;19.20;99.90
